createdAt,value
2018-05-06T00:02:07.701Z,101816.91
2018-05-06T00:04:36.867Z,101818.18
2018-05-06T00:07:05.271Z,101818.52
2018-05-06T00:09:33.529Z,101815.81
2018-05-06T00:12:01.112Z,101812.67
2018-05-06T00:14:30.208Z,101817.70
2018-05-06T00:16:57.773Z,101816.53
2018-05-06T00:19:26.377Z,101811.52
2018-05-06T00:21:54.035Z,101820.17
2018-05-06T00:24:21.610Z,101817.84
2018-05-06T00:26:49.437Z,101816.83
2018-05-06T00:29:17.587Z,101816.84
2018-05-06T00:31:45.170Z,101824.62
2018-05-06T00:34:12.736Z,101822.66
2018-05-06T00:36:40.359Z,101806.83
2018-05-06T00:39:09.054Z,101817.80
2018-05-06T00:41:36.767Z,101817.97
2018-05-06T00:44:04.456Z,101822.16
2018-05-06T00:46:33.395Z,101820.81
2018-05-06T00:49:01.168Z,101822.33
2018-05-06T00:51:28.742Z,101825.17
2018-05-06T00:53:56.569Z,101828.86
2018-05-06T00:56:25.423Z,101827.52
2018-05-06T00:58:53.195Z,101828.02
2018-05-06T01:01:20.963Z,101826.26
2018-05-06T01:03:49.586Z,101815.66
2018-05-06T01:06:17.742Z,101824.70
2018-05-06T01:08:45.758Z,101822.69
2018-05-06T01:11:13.495Z,101830.06
2018-05-06T01:13:42.236Z,101824.95
2018-05-06T01:16:09.998Z,101833.23
2018-05-06T01:18:38.567Z,101834.24
2018-05-06T01:21:06.140Z,101830.59
2018-05-06T01:23:33.719Z,101839.38
2018-05-06T01:26:01.525Z,101832.93
2018-05-06T01:28:29.615Z,101829.58
2018-05-06T01:30:57.207Z,101829.75
2018-05-06T01:33:24.789Z,101828.08
2018-05-06T01:35:53.329Z,101827.09
2018-05-06T01:38:21.023Z,101830.28
2018-05-06T01:40:49.432Z,101823.75
2018-05-06T01:43:17.027Z,101827.84
2018-05-06T01:45:44.820Z,101828.44
2018-05-06T01:48:12.804Z,101827.59
2018-05-06T01:50:40.872Z,101827.26
2018-05-06T01:53:08.473Z,101831.69
2018-05-06T01:55:37.087Z,101833.97
2018-05-06T01:58:04.753Z,101838.82
2018-05-06T02:00:33.363Z,101835.55
2018-05-06T02:03:00.977Z,101832.78
2018-05-06T02:05:29.370Z,101823.23
2018-05-06T02:07:57.502Z,101826.78
2018-05-06T02:10:26.090Z,101828.78
2018-05-06T02:12:53.682Z,101830.45
2018-05-06T02:15:22.167Z,101823.50
2018-05-06T02:17:50.574Z,101827.94
2018-05-06T02:20:18.163Z,101817.67
2018-05-06T02:22:45.869Z,101820.09
2018-05-06T02:25:13.695Z,101820.75
2018-05-06T02:27:42.459Z,101822.84
2018-05-06T02:30:10.403Z,101821.33
2018-05-06T02:32:38.076Z,101823.66
2018-05-06T02:35:06.303Z,101824.50
2018-05-06T02:37:33.938Z,101817.97
2018-05-06T02:40:01.938Z,101825.24
2018-05-06T02:42:29.526Z,101822.01
2018-05-06T02:44:57.188Z,101821.67
2018-05-06T02:47:24.825Z,101823.01
2018-05-06T02:49:52.562Z,101821.91
2018-05-06T02:52:20.233Z,101815.80
2018-05-06T02:54:48.478Z,101816.72
2018-05-06T02:57:16.040Z,101815.39
2018-05-06T02:59:43.892Z,101824.33
2018-05-06T03:02:11.527Z,101825.50
2018-05-06T03:04:39.388Z,101820.75
2018-05-06T03:07:08.135Z,101819.59
2018-05-06T03:09:36.524Z,101822.34
2018-05-06T03:12:04.101Z,101815.30
2018-05-06T03:14:32.078Z,101810.89
2018-05-06T03:16:59.698Z,101809.61
2018-05-06T03:19:27.953Z,101803.91
2018-05-06T03:21:55.666Z,101795.70
2018-05-06T03:24:23.492Z,101804.47
2018-05-06T03:26:51.834Z,101800.72
2018-05-06T03:29:20.224Z,101807.82
2018-05-06T03:31:47.764Z,101807.63
2018-05-06T03:34:15.951Z,101803.81
2018-05-06T03:36:43.688Z,101807.75
2018-05-06T03:39:11.664Z,101801.37
2018-05-06T03:41:39.213Z,101804.88
2018-05-06T03:44:06.855Z,101807.63
2018-05-06T03:46:34.443Z,101811.91
2018-05-06T03:49:01.999Z,101819.20
2018-05-06T03:51:29.563Z,101817.38
2018-05-06T03:53:57.150Z,101807.48
2018-05-06T03:56:56.870Z,101800.18
2018-05-06T03:59:36.271Z,101809.84
2018-05-06T04:05:14.764Z,101800.24
2018-05-06T04:07:43.338Z,101805.93
2018-05-06T04:10:10.896Z,101805.53
2018-05-06T04:12:38.515Z,101803.68
2018-05-06T04:15:07.056Z,101805.22
2018-05-06T04:17:35.438Z,101806.30
2018-05-06T04:20:03.018Z,101808.34
2018-05-06T04:22:30.566Z,101808.24
2018-05-06T04:24:58.164Z,101808.05
2018-05-06T04:27:26.168Z,101812.34
2018-05-06T04:29:54.615Z,101816.69
2018-05-06T04:32:22.467Z,101811.76
2018-05-06T04:34:50.809Z,101817.89
2018-05-06T04:37:18.391Z,101820.65
2018-05-06T04:39:46.629Z,101823.06
2018-05-06T04:42:14.294Z,101820.20
2018-05-06T04:44:41.841Z,101821.13
2018-05-06T04:47:09.412Z,101829.43
2018-05-06T04:49:36.958Z,101825.64
2018-05-06T04:52:04.504Z,101826.69
2018-05-06T04:54:32.747Z,101830.55
2018-05-06T04:57:00.324Z,101838.31
2018-05-06T04:59:27.867Z,101835.61
2018-05-06T05:01:55.533Z,101834.72
2018-05-06T05:04:23.087Z,101830.48
2018-05-06T05:06:51.448Z,101829.30
2018-05-06T05:09:19.484Z,101824.25
2018-05-06T05:11:47.036Z,101821.24
2018-05-06T05:14:15.870Z,101818.62
2018-05-06T05:16:43.476Z,101818.47
2018-05-06T05:19:11.742Z,101817.81
2018-05-06T05:21:39.285Z,101817.97
2018-05-06T05:24:06.820Z,101817.21
2018-05-06T05:26:35.022Z,101812.02
2018-05-06T05:29:03.311Z,101815.09
2018-05-06T05:31:30.859Z,101810.77
2018-05-06T05:33:59.019Z,101809.59
2018-05-06T05:36:26.550Z,101809.73
2018-05-06T05:38:54.581Z,101812.92
2018-05-06T05:41:22.287Z,101809.72
2018-05-06T05:43:49.839Z,101804.06
2018-05-06T05:46:17.423Z,101794.91
2018-05-06T05:48:44.968Z,101801.73
2018-05-06T05:51:12.655Z,101811.41
2018-05-06T05:53:40.211Z,101816.25
2018-05-06T05:56:08.331Z,101809.87
2018-05-06T05:58:35.903Z,101819.02
2018-05-06T06:01:03.439Z,101815.67
2018-05-06T06:03:31.034Z,101811.40
2018-05-06T06:05:59.038Z,101821.98
2018-05-06T06:08:27.081Z,101821.41
2018-05-06T06:10:54.620Z,101821.45
2018-05-06T06:13:22.870Z,101819.71
2018-05-06T06:15:50.462Z,101827.27
2018-05-06T06:18:18.903Z,101823.72
2018-05-06T06:20:46.432Z,101827.97
2018-05-06T06:23:14.153Z,101825.02
2018-05-06T06:25:41.738Z,101825.59
2018-05-06T06:28:10.073Z,101813.72
2018-05-06T06:30:37.788Z,101821.31
2018-05-06T06:33:05.319Z,101818.39
2018-05-06T06:35:33.380Z,101813.12
2018-05-06T06:38:00.917Z,101816.16
2018-05-06T06:40:29.517Z,101819.17
2018-05-06T06:42:57.055Z,101819.69
2018-05-06T06:45:24.670Z,101820.08
2018-05-06T06:47:53.114Z,101828.72
2018-05-06T06:50:20.707Z,101822.45
2018-05-06T06:52:48.301Z,101818.90
2018-05-06T06:55:17.000Z,101816.63
2018-05-06T06:57:44.580Z,101812.80
2018-05-06T07:00:12.112Z,101824.34
2018-05-06T07:02:39.795Z,101830.17
2018-05-06T07:05:07.890Z,101829.94
2018-05-06T07:07:36.023Z,101822.03
2018-05-06T07:10:03.597Z,101831.33
2018-05-06T07:12:31.385Z,101820.93
2018-05-06T07:14:59.519Z,101823.67
2018-05-06T07:17:27.790Z,101827.41
2018-05-06T07:19:55.512Z,101833.05
2018-05-06T07:22:23.039Z,101824.23
2018-05-06T07:24:50.629Z,101837.63
2018-05-06T07:27:19.167Z,101837.95
2018-05-06T07:29:47.413Z,101829.84
2018-05-06T07:32:14.957Z,101845.03
2018-05-06T07:34:43.623Z,101839.64
2018-05-06T07:37:11.167Z,101841.96
2018-05-06T07:39:39.152Z,101837.31
2018-05-06T07:42:06.698Z,101835.42
2018-05-06T07:44:34.224Z,101840.33
2018-05-06T07:47:01.787Z,101832.30
2018-05-06T07:49:29.330Z,101827.50
2018-05-06T07:51:56.908Z,101823.31
2018-05-06T07:54:25.143Z,101826.19
2018-05-06T07:56:52.735Z,101829.17
2018-05-06T07:59:20.285Z,101825.32
2018-05-06T08:01:47.983Z,101833.89
2018-05-06T08:04:15.545Z,101825.80
2018-05-06T08:06:44.056Z,101828.41
2018-05-06T08:09:12.581Z,101822.08
2018-05-06T08:11:40.130Z,101821.77
2018-05-06T08:14:08.290Z,101831.14
2018-05-06T08:16:35.943Z,101825.62
2018-05-06T08:19:04.150Z,101830.63
2018-05-06T08:21:31.696Z,101832.81
2018-05-06T08:23:59.242Z,101836.98
2018-05-06T08:26:27.797Z,101828.36
2018-05-06T08:28:56.900Z,101836.16
2018-05-06T08:31:24.516Z,101846.43
2018-05-06T08:33:52.774Z,101845.00
2018-05-06T08:36:20.393Z,101840.19
2018-05-06T08:38:48.732Z,101834.98
2018-05-06T08:41:16.278Z,101838.50
2018-05-06T08:43:44.020Z,101840.69
2018-05-06T08:46:11.607Z,101834.41
2018-05-06T08:48:40.160Z,101831.91
2018-05-06T08:51:08.778Z,101832.08
2018-05-06T08:53:36.314Z,101823.16
2018-05-06T08:56:04.679Z,101815.50
2018-05-06T08:58:32.223Z,101806.98
2018-05-06T09:00:59.799Z,101820.75
2018-05-06T09:03:27.368Z,101822.73
2018-05-06T09:05:55.768Z,101821.58
2018-05-06T09:08:24.550Z,101827.48
2018-05-06T09:10:52.213Z,101814.93
2018-05-06T09:13:21.362Z,101819.78
2018-05-06T09:15:48.919Z,101826.33
2018-05-06T09:18:16.987Z,101825.76
2018-05-06T09:20:44.630Z,101830.03
2018-05-06T09:23:12.159Z,101826.14
2018-05-06T09:25:39.762Z,101823.75
2018-05-06T09:28:07.963Z,101820.93
2018-05-06T09:30:35.531Z,101825.06
2018-05-06T09:33:03.069Z,101819.00
2018-05-06T09:35:31.069Z,101824.81
2018-05-06T09:37:58.600Z,101814.11
2018-05-06T09:40:26.895Z,101806.50
2018-05-06T09:42:54.495Z,101805.98
2018-05-06T09:45:22.115Z,101811.30
2018-05-06T09:47:49.934Z,101807.95
2018-05-06T09:50:17.441Z,101799.55
2018-05-06T09:52:45.006Z,101797.77
2018-05-06T09:55:13.171Z,101793.50
2018-05-06T09:57:40.699Z,101782.37
2018-05-06T10:00:08.277Z,101776.57
2018-05-06T10:02:35.853Z,101792.88
2018-05-06T10:05:04.204Z,101780.79
2018-05-06T10:07:32.487Z,101775.78
2018-05-06T10:10:00.033Z,101784.20
2018-05-06T10:12:27.583Z,101782.25
2018-05-06T10:14:55.866Z,101778.05
2018-05-06T10:17:24.163Z,101771.28
2018-05-06T10:19:51.703Z,101768.08
2018-05-06T10:22:19.304Z,101769.63
2018-05-06T10:24:46.839Z,101770.67
2018-05-06T10:27:15.017Z,101765.52
2018-05-06T10:29:43.439Z,101766.13
2018-05-06T10:32:10.983Z,101766.08
2018-05-06T10:34:39.326Z,101772.06
2018-05-06T10:37:06.849Z,101753.80
2018-05-06T10:39:35.320Z,101757.34
2018-05-06T10:42:02.859Z,101756.77
2018-05-06T10:44:30.393Z,101756.66
2018-05-06T10:46:58.004Z,101753.11
2018-05-06T10:49:25.777Z,101758.23
2018-05-06T10:51:53.279Z,101755.53
2018-05-06T10:54:21.287Z,101758.78
2018-05-06T10:56:49.567Z,101756.03
2018-05-06T10:59:17.095Z,101760.85
2018-05-06T11:01:45.231Z,101764.12
2018-05-06T11:04:12.804Z,101756.30
2018-05-06T11:06:40.909Z,101757.48
2018-05-06T11:09:09.233Z,101751.45
2018-05-06T11:11:36.762Z,101755.03
2018-05-06T11:14:05.089Z,101760.73
2018-05-06T11:16:32.627Z,101758.27
2018-05-06T11:19:00.599Z,101746.69
2018-05-06T11:21:28.156Z,101743.62
2018-05-06T11:23:55.739Z,101742.05
2018-05-06T11:26:24.040Z,101741.11
2018-05-06T11:28:52.362Z,101742.16
2018-05-06T11:31:19.895Z,101742.65
2018-05-06T11:33:48.156Z,101734.87
2018-05-06T11:36:15.631Z,101735.52
2018-05-06T11:38:43.860Z,101733.31
2018-05-06T11:41:11.404Z,101726.25
2018-05-06T11:43:38.953Z,101718.44
2018-05-06T11:46:06.517Z,101722.84
2018-05-06T11:48:34.048Z,101736.92
2018-05-06T11:51:01.685Z,101726.46
2018-05-06T11:53:29.266Z,101723.12
2018-05-06T11:55:57.390Z,101721.35
2018-05-06T11:58:24.948Z,101720.05
2018-05-06T12:00:52.600Z,101717.11
2018-05-06T12:03:20.160Z,101711.13
2018-05-06T12:05:48.268Z,101723.01
2018-05-06T12:08:16.517Z,101721.59
2018-05-06T12:10:44.691Z,101717.83
2018-05-06T12:13:12.350Z,101712.59
2018-05-06T12:15:40.499Z,101709.45
2018-05-06T12:18:08.914Z,101711.94
2018-05-06T12:20:36.457Z,101711.21
2018-05-06T12:23:04.006Z,101713.64
2018-05-06T12:25:31.571Z,101710.92
2018-05-06T12:27:59.529Z,101716.93
2018-05-06T12:30:27.059Z,101709.98
2018-05-06T12:32:54.728Z,101709.51
2018-05-06T12:35:23.080Z,101711.11
2018-05-06T12:37:50.667Z,101710.48
2018-05-06T12:40:18.757Z,101701.27
2018-05-06T12:42:46.299Z,101694.45
2018-05-06T12:45:13.839Z,101699.89
2018-05-06T12:47:41.435Z,101704.89
2018-05-06T12:50:08.976Z,101703.23
2018-05-06T12:52:36.659Z,101700.96
2018-05-06T12:55:04.972Z,101699.01
2018-05-06T12:57:32.520Z,101708.72
2018-05-06T13:00:00.053Z,101705.70
2018-05-06T13:02:27.677Z,101700.39
2018-05-06T13:04:56.051Z,101687.69
2018-05-06T13:07:24.274Z,101686.27
2018-05-06T13:09:52.842Z,101691.56
2018-05-06T13:12:20.435Z,101676.27
2018-05-06T13:14:48.431Z,101679.53
2018-05-06T13:17:17.297Z,101679.72
2018-05-06T13:19:44.830Z,101684.81
2018-05-06T13:22:12.354Z,101683.85
2018-05-06T13:24:40.006Z,101683.27
2018-05-06T13:27:08.196Z,101687.70
2018-05-06T13:29:36.625Z,101689.48
2018-05-06T13:32:04.189Z,101674.20
2018-05-06T13:34:32.539Z,101687.52
2018-05-06T13:37:00.078Z,101679.30
2018-05-06T13:39:28.342Z,101670.52
2018-05-06T13:41:55.907Z,101676.97
2018-05-06T13:44:23.440Z,101673.78
2018-05-06T13:46:51.285Z,101673.81
2018-05-06T13:49:18.844Z,101670.95
2018-05-06T13:51:46.570Z,101665.93
2018-05-06T13:54:14.248Z,101670.04
2018-05-06T13:56:42.445Z,101663.02
2018-05-06T13:59:10.018Z,101672.45
2018-05-06T14:01:37.562Z,101669.20
2018-05-06T14:04:06.101Z,101662.52
2018-05-06T14:06:34.130Z,101662.94
2018-05-06T14:09:02.412Z,101653.53
2018-05-06T14:11:29.944Z,101660.33
2018-05-06T14:13:58.102Z,101662.64
2018-05-06T14:16:25.640Z,101661.81
2018-05-06T14:18:53.888Z,101659.88
2018-05-06T14:21:21.470Z,101652.34
2018-05-06T14:23:49.007Z,101648.67
2018-05-06T14:26:17.249Z,101639.53
2018-05-06T14:28:45.395Z,101638.25
2018-05-06T14:31:13.008Z,101634.10
2018-05-06T14:33:41.259Z,101639.52
2018-05-06T14:36:08.800Z,101640.63
2018-05-06T14:38:36.981Z,101643.08
2018-05-06T14:41:04.547Z,101636.09
2018-05-06T14:43:32.091Z,101635.75
2018-05-06T14:46:00.251Z,101636.98
2018-05-06T14:48:27.786Z,101637.95
2018-05-06T14:50:55.710Z,101633.73
2018-05-06T14:53:23.382Z,101629.48
2018-05-06T14:55:51.473Z,101629.59
2018-05-06T14:58:19.743Z,101630.43
2018-05-06T15:00:47.319Z,101630.55
2018-05-06T15:03:14.928Z,101622.20
2018-05-06T15:05:42.990Z,101622.62
2018-05-06T15:08:11.271Z,101616.91
2018-05-06T15:10:38.854Z,101624.69
2018-05-06T15:13:06.375Z,101621.25
2018-05-06T15:15:34.596Z,101626.03
2018-05-06T15:18:02.843Z,101616.61
2018-05-06T15:20:30.386Z,101614.45
2018-05-06T15:22:57.915Z,101625.21
2018-05-06T15:25:25.562Z,101615.37
2018-05-06T15:27:54.005Z,101622.10
2018-05-06T15:30:21.547Z,101622.56
2018-05-06T15:32:49.102Z,101620.60
2018-05-06T15:35:17.225Z,101624.00
2018-05-06T15:37:44.763Z,101626.97
2018-05-06T15:40:12.667Z,101624.09
2018-05-06T15:42:40.204Z,101620.33
2018-05-06T15:45:07.763Z,101611.89
2018-05-06T15:47:35.659Z,101610.45
2018-05-06T15:50:03.642Z,101605.17
2018-05-06T15:52:31.176Z,101611.12
2018-05-06T15:54:59.441Z,101601.40
2018-05-06T15:57:26.971Z,101597.70
2018-05-06T15:59:54.508Z,101593.73
2018-05-06T16:05:18.046Z,101606.07
2018-05-06T16:07:46.279Z,101589.84
2018-05-06T16:10:13.827Z,101595.16
2018-05-06T16:12:41.357Z,101595.38
2018-05-06T16:15:09.527Z,101598.45
2018-05-06T16:17:37.616Z,101596.59
2018-05-06T16:20:06.007Z,101613.46
2018-05-06T16:22:33.573Z,101605.12
2018-05-06T16:25:01.129Z,101599.22
2018-05-06T16:27:29.238Z,101599.89
2018-05-06T16:29:56.786Z,101591.95
2018-05-06T16:32:24.406Z,101591.95
2018-05-06T16:34:52.494Z,101587.82
2018-05-06T16:37:20.039Z,101586.28
2018-05-06T16:39:48.100Z,101583.03
2018-05-06T16:42:15.638Z,101582.66
2018-05-06T16:44:43.302Z,101579.91
2018-05-06T16:47:11.880Z,101580.39
2018-05-06T16:49:39.427Z,101583.73
2018-05-06T16:52:06.960Z,101579.63
2018-05-06T16:54:35.140Z,101584.98
2018-05-06T16:57:03.241Z,101590.54
2018-05-06T16:59:30.834Z,101589.70
2018-05-06T17:01:58.386Z,101587.09
2018-05-06T17:04:25.972Z,101589.42
2018-05-06T17:06:54.099Z,101587.23
2018-05-06T17:09:21.649Z,101593.95
2018-05-06T17:11:49.197Z,101581.97
2018-05-06T17:14:17.250Z,101582.68
2018-05-06T17:16:44.929Z,101578.27
2018-05-06T17:19:13.047Z,101576.77
2018-05-06T17:21:41.072Z,101578.40
2018-05-06T17:24:08.631Z,101585.56
2018-05-06T17:26:36.557Z,101580.23
2018-05-06T17:29:04.113Z,101583.77
2018-05-06T17:31:31.694Z,101582.91
2018-05-06T17:33:59.656Z,101577.94
2018-05-06T17:36:27.190Z,101574.47
2018-05-06T17:38:55.492Z,101576.90
2018-05-06T17:41:23.038Z,101581.80
2018-05-06T17:43:50.573Z,101583.27
2018-05-06T17:46:18.976Z,101588.39
2018-05-06T17:48:46.697Z,101580.97
2018-05-06T17:51:14.244Z,101582.84
2018-05-06T17:53:41.855Z,101586.14
2018-05-06T17:56:09.932Z,101585.00
2018-05-06T17:58:37.481Z,101588.06
2018-05-06T18:01:05.051Z,101588.78
2018-05-06T18:03:32.643Z,101589.88
2018-05-06T18:06:00.834Z,101589.22
2018-05-06T18:08:28.370Z,101596.88
2018-05-06T18:10:55.900Z,101598.16
2018-05-06T18:13:24.373Z,101600.87
2018-05-06T18:15:51.991Z,101598.41
2018-05-06T18:18:20.135Z,101604.20
2018-05-06T18:20:48.534Z,101604.89
2018-05-06T18:23:16.186Z,101603.00
2018-05-06T18:25:43.727Z,101604.91
2018-05-06T18:28:11.835Z,101602.89
2018-05-06T18:30:39.502Z,101616.91
2018-05-06T18:33:07.594Z,101615.55
2018-05-06T18:35:35.888Z,101611.20
2018-05-06T18:38:03.656Z,101606.36
2018-05-06T18:40:31.875Z,101609.27
2018-05-06T18:42:59.499Z,101609.02
2018-05-06T18:45:27.049Z,101612.56
2018-05-06T18:47:55.537Z,101612.78
2018-05-06T18:50:23.162Z,101617.55
2018-05-06T18:52:50.810Z,101612.72
2018-05-06T18:55:19.039Z,101622.24
2018-05-06T18:57:46.640Z,101622.44
2018-05-06T19:00:14.187Z,101619.58
2018-05-06T19:02:41.844Z,101628.23
2018-05-06T19:05:10.499Z,101623.41
2018-05-06T19:07:38.028Z,101621.02
2018-05-06T19:10:05.729Z,101624.02
2018-05-06T19:12:33.301Z,101621.63
2018-05-06T19:15:01.258Z,101621.84
2018-05-06T19:17:29.502Z,101624.83
2018-05-06T19:19:57.721Z,101634.86
2018-05-06T19:22:26.063Z,101635.27
2018-05-06T19:24:53.615Z,101631.78
2018-05-06T19:27:21.862Z,101630.14
2018-05-06T19:29:49.413Z,101629.83
2018-05-06T19:32:17.681Z,101630.47
2018-05-06T19:34:45.790Z,101639.64
2018-05-06T19:37:13.366Z,101641.61
2018-05-06T19:39:41.663Z,101647.63
2018-05-06T19:42:09.215Z,101644.79
2018-05-06T19:44:36.812Z,101648.79
2018-05-06T19:47:05.019Z,101651.57
2018-05-06T19:49:32.579Z,101655.66
2018-05-06T19:52:00.149Z,101648.95
2018-05-06T19:54:28.634Z,101651.02
2018-05-06T19:56:56.233Z,101656.85
2018-05-06T19:59:23.846Z,101649.51
2018-05-06T20:01:51.467Z,101645.69
2018-05-06T20:04:19.032Z,101659.20
2018-05-06T20:06:48.005Z,101658.16
2018-05-06T20:09:15.588Z,101658.27
2018-05-06T20:11:43.169Z,101662.34
2018-05-06T20:14:11.381Z,101659.42
2018-05-06T20:16:38.954Z,101662.66
2018-05-06T20:19:07.204Z,101666.91
2018-05-06T20:21:36.751Z,101663.59
2018-05-06T20:24:04.318Z,101665.99
2018-05-06T20:26:32.363Z,101671.56
2018-05-06T20:28:59.913Z,101667.39
2018-05-06T20:31:28.012Z,101661.07
2018-05-06T20:33:55.970Z,101667.79
2018-05-06T20:36:23.570Z,101665.30
2018-05-06T20:38:51.991Z,101665.91
2018-05-06T20:41:19.556Z,101666.61
2018-05-06T20:43:47.242Z,101662.53
2018-05-06T20:46:15.187Z,101665.19
2018-05-06T20:48:42.732Z,101663.42
2018-05-06T20:51:10.275Z,101665.76
2018-05-06T20:53:37.832Z,101666.06
2018-05-06T20:56:06.289Z,101668.63
2018-05-06T20:58:33.866Z,101673.29
2018-05-06T21:01:01.400Z,101669.94
2018-05-06T21:03:29.610Z,101672.09
2018-05-06T21:05:57.693Z,101673.64
2018-05-06T21:08:25.335Z,101677.83
2018-05-06T21:10:52.871Z,101671.58
2018-05-06T21:13:21.570Z,101663.96
2018-05-06T21:15:49.092Z,101669.03
2018-05-06T21:18:17.107Z,101669.33
2018-05-06T21:20:45.324Z,101670.55
2018-05-06T21:23:12.869Z,101667.95
2018-05-06T21:25:40.427Z,101671.16
2018-05-06T21:28:08.558Z,101671.98
2018-05-06T21:30:36.129Z,101673.63
2018-05-06T21:33:03.607Z,101670.52
2018-05-06T21:35:33.025Z,101672.89
2018-05-06T21:38:00.527Z,101677.64
2018-05-06T21:40:28.803Z,101676.97
2018-05-06T21:42:56.389Z,101675.69
2018-05-06T21:45:24.008Z,101672.93
2018-05-06T21:47:52.674Z,101674.81
2018-05-06T21:50:20.301Z,101675.36
2018-05-06T21:52:47.885Z,101671.79
2018-05-06T21:55:16.899Z,101681.75
2018-05-06T21:57:44.449Z,101682.82
2018-05-06T22:00:12.006Z,101684.78
2018-05-06T22:02:39.565Z,101677.73
2018-05-06T22:05:07.791Z,101685.80
2018-05-06T22:07:35.466Z,101682.55
2018-05-06T22:10:02.890Z,101681.98
2018-05-06T22:16:01.571Z,101676.06
2018-05-06T22:18:30.022Z,101677.96
2018-05-06T22:20:58.238Z,101678.87
2018-05-06T22:23:25.790Z,101679.56
2018-05-06T22:25:54.154Z,101673.92
2018-05-06T22:28:21.706Z,101677.12
2018-05-06T22:30:49.252Z,101676.47
2018-05-06T22:33:18.018Z,101674.05
2018-05-06T22:35:45.603Z,101677.67
2018-05-06T22:38:13.216Z,101674.89
2018-05-06T22:40:41.390Z,101672.30
2018-05-06T22:43:08.928Z,101666.92
2018-05-06T22:45:37.520Z,101673.70
2018-05-06T22:48:05.795Z,101669.30
2018-05-06T22:50:33.342Z,101679.66
2018-05-06T22:53:00.878Z,101672.88
2018-05-06T22:55:28.967Z,101671.66
2018-05-06T22:57:56.521Z,101665.91
2018-05-06T23:00:24.652Z,101666.06
2018-05-06T23:02:53.015Z,101667.02
2018-05-06T23:05:21.343Z,101658.17
2018-05-06T23:07:48.941Z,101665.09
2018-05-06T23:10:16.982Z,101669.06
2018-05-06T23:12:44.575Z,101676.28
2018-05-06T23:15:12.955Z,101667.16
2018-05-06T23:17:41.246Z,101668.02
2018-05-06T23:20:09.372Z,101669.72
2018-05-06T23:22:37.392Z,101672.50
2018-05-06T23:25:04.936Z,101676.64
2018-05-06T23:27:33.098Z,101679.75
2018-05-06T23:30:00.667Z,101671.19
2018-05-06T23:32:28.234Z,101670.97
2018-05-06T23:34:56.256Z,101667.89
2018-05-06T23:37:23.830Z,101669.91
2018-05-06T23:39:52.069Z,101668.91
2018-05-06T23:42:19.608Z,101666.45
2018-05-06T23:44:47.368Z,101666.34
2018-05-06T23:47:14.967Z,101651.84
2018-05-06T23:49:42.829Z,101655.08
2018-05-06T23:52:10.388Z,101653.67
2018-05-06T23:54:38.890Z,101648.81
2018-05-06T23:57:06.428Z,101644.20
2018-05-06T23:59:34.010Z,101648.81
